Aloha — WDH7017 — position and weather

sailwx.info

Track history (hours):
 
Tides and Currents Weather Stations Pressure Air Temp Water Temp Dewpoint Dewpoint Depression Visibility Wind Speed Wind Dir Waves Ship Positions

Aloha

Owner: Garver, James A, Ventura, CA. More information available from US FCC via Universal Licensing System and Coast Guard Vessel Documentation Center.

Last reported at 2017-Oct-07 00:59 UTC. Time now 2017-Oct-18 20:27 UTC.
Position N 33°28' W 117°42'.
Warning: this ship's position is 11 days out of date.

Length 18 m.

Type: Pleasure craft. MMSI: 367643920.

Date/timePositionNaut miles runAvg speedWind from/ knotsBaromVisibWave heightAir tempDewpointWater temp
2017-Oct-07 00:59N 33°28' W 117°42'1 1.3
2017-Oct-07 00:29N 33°28' W 117°41'511.0
2017-Oct-07 00:00N 33°23' W 117°44'815.2
2017-Oct-06 23:30N 33°16' W 117°48'815.1
2017-Oct-06 23:00N 33°09' W 117°51'714.7
2017-Oct-06 22:30N 33°02' W 117°55'714.6
2017-Oct-06 21:59N 32°56' W 118°00'0 0.8
2017-Oct-06 21:30N 32°56' W 118°01'0 0.5
2017-Oct-06 21:00N 32°56' W 118°01'1 1.4
2017-Oct-06 20:30N 32°56' W 118°01'2 4.1
2017-Oct-06 20:00N 32°56' W 118°03'1 2.4
2017-Oct-06 19:31N 32°55' W 118°05'3 6.2
2017-Oct-06 19:01N 32°56' W 118°01'3 5.2
2017-Oct-06 18:30N 32°58' W 117°59'2 4.3
2017-Oct-06 18:00N 33°00' W 117°60'0 0.2
2017-Oct-06 17:30N 33°00' W 117°60'2 3.4
2017-Oct-06 17:00N 33°02' W 117°60'3 5.4
2017-Oct-06 16:30N 33°04' W 117°58'3 6.4
2017-Oct-06 16:00N 33°05' W 117°54'4 7.7
2017-Oct-06 15:30N 33°08' W 117°51'510.1
2017-Oct-06 15:00N 33°13' W 117°48'815.2
2017-Oct-06 14:30N 33°20' W 117°45'815.1
2017-Oct-06 14:00N 33°27' W 117°42'1 1.7
2017-Oct-06 13:30N 33°27' W 117°42'  
2017-Oct-03 20:13N 33°28' W 117°42'0 0.0
2017-Oct-03 19:58N 33°28' W 117°42'0 0.0
2017-Oct-03 18:58N 33°28' W 117°42'0 0.0
2017-Oct-03 18:28N 33°28' W 117°42'0 0.0
2017-Oct-03 17:58N 33°28' W 117°42'  
2017-Oct-01 05:05N 33°28' W 117°42'0 0.1
2017-Oct-01 04:59N 33°28' W 117°42'0 0.0
2017-Oct-01 04:29N 33°28' W 117°42'0 0.0
2017-Oct-01 03:59N 33°28' W 117°42'0 0.0
2017-Oct-01 03:29N 33°28' W 117°42'0 0.0
2017-Oct-01 02:59N 33°28' W 117°42'  
Track history (hours):
 
Tides and Currents Weather Stations Pressure Air Temp Water Temp Dewpoint Dewpoint Depression Visibility Wind Speed Wind Dir Waves Ship Positions

Aloha

Owner: Garver, James A, Ventura, CA. More information available from US FCC via Universal Licensing System and Coast Guard Vessel Documentation Center.

Last reported at 2017-Oct-07 00:59 UTC. Time now 2017-Oct-18 20:27 UTC.
Position N 33°28' W 117°42'.
Warning: this ship's position is 11 days out of date.

Length 18 m.

Type: Pleasure craft. MMSI: 367643920.

Date/timePositionNaut miles runAvg speedWind from/ knotsBaromVisibWave heightAir tempDewpointWater temp
2017-Oct-07 00:59N 33°28' W 117°42'1 1.3
2017-Oct-07 00:29N 33°28' W 117°41'511.0
2017-Oct-07 00:00N 33°23' W 117°44'815.2
2017-Oct-06 23:30N 33°16' W 117°48'815.1
2017-Oct-06 23:00N 33°09' W 117°51'714.7
2017-Oct-06 22:30N 33°02' W 117°55'714.6
2017-Oct-06 21:59N 32°56' W 118°00'0 0.8
2017-Oct-06 21:30N 32°56' W 118°01'0 0.5
2017-Oct-06 21:00N 32°56' W 118°01'1 1.4
2017-Oct-06 20:30N 32°56' W 118°01'2 4.1
2017-Oct-06 20:00N 32°56' W 118°03'1 2.4
2017-Oct-06 19:31N 32°55' W 118°05'3 6.2
2017-Oct-06 19:01N 32°56' W 118°01'3 5.2
2017-Oct-06 18:30N 32°58' W 117°59'2 4.3
2017-Oct-06 18:00N 33°00' W 117°60'0 0.2
2017-Oct-06 17:30N 33°00' W 117°60'2 3.4
2017-Oct-06 17:00N 33°02' W 117°60'3 5.4
2017-Oct-06 16:30N 33°04' W 117°58'3 6.4
2017-Oct-06 16:00N 33°05' W 117°54'4 7.7
2017-Oct-06 15:30N 33°08' W 117°51'510.1
2017-Oct-06 15:00N 33°13' W 117°48'815.2
2017-Oct-06 14:30N 33°20' W 117°45'815.1
2017-Oct-06 14:00N 33°27' W 117°42'1 1.7
2017-Oct-06 13:30N 33°27' W 117°42'  
2017-Oct-03 20:13N 33°28' W 117°42'0 0.0
2017-Oct-03 19:58N 33°28' W 117°42'0 0.0
2017-Oct-03 18:58N 33°28' W 117°42'0 0.0
2017-Oct-03 18:28N 33°28' W 117°42'0 0.0
2017-Oct-03 17:58N 33°28' W 117°42'  
2017-Oct-01 05:05N 33°28' W 117°42'0 0.1
2017-Oct-01 04:59N 33°28' W 117°42'0 0.0
2017-Oct-01 04:29N 33°28' W 117°42'0 0.0
2017-Oct-01 03:59N 33°28' W 117°42'0 0.0
2017-Oct-01 03:29N 33°28' W 117°42'0 0.0
2017-Oct-01 02:59N 33°28' W 117°42'  

Dump ship's entire track history